Time;durP1;ratioP1;P1;durP2;ratioP2;P2;SDS_P1;SDS_P2;PMS_P1;PMS_P2;Temp;Humidity;BMP_temperature;BMP_pressure;BME280_temperature;BME280_humidity;BME280_pressure;Samples;Min_cycle;Max_cycle;Signal;HPM_P1;HPM_P2
2022/09/18 00:01:40;;;;;;;10.27;5.65;;;;;;;11.17;71.42;98746.59;5074188;28;20031;-60
2022/09/18 00:04:07;;;;;;;8.57;5.63;;;;;;;11.17;71.25;98751.94;5066744;28;20068;-60
2022/09/18 00:06:38;;;;;;;10.95;5.60;;;;;;;11.20;71.64;98757.00;5054455;28;20129;-60
2022/09/18 00:09:09;;;;;;;12.95;5.53;;;;;;;11.01;71.44;98726.69;5054083;28;20029;-59
2022/09/18 00:11:38;;;;;;;9.70;5.32;;;;;;;11.13;71.48;98750.59;5062390;28;20032;-61
2022/09/18 00:14:06;;;;;;;9.23;5.50;;;;;;;11.08;71.53;98755.53;5074233;28;20028;-61
2022/09/18 00:16:31;;;;;;;7.32;5.53;;;;;;;11.06;71.68;98750.34;5073936;28;20396;-59
2022/09/18 00:18:57;;;;;;;11.60;5.75;;;;;;;11.05;71.69;98743.31;5072371;28;20121;-60
2022/09/18 00:21:24;;;;;;;8.80;5.70;;;;;;;11.08;71.62;98742.13;5073977;28;20040;-61
2022/09/18 00:23:53;;;;;;;7.57;5.30;;;;;;;10.93;71.87;98723.94;5063967;28;20043;-61
2022/09/18 00:26:19;;;;;;;6.95;5.40;;;;;;;11.03;71.31;98737.28;5053485;28;20044;-61
2022/09/18 00:28:45;;;;;;;10.25;5.75;;;;;;;11.09;71.35;98746.50;5053793;28;20033;-61
2022/09/18 00:31:16;;;;;;;8.18;5.45;;;;;;;10.95;71.48;98713.06;5034106;28;20463;-62
2022/09/18 00:33:43;;;;;;;7.30;5.88;;;;;;;10.89;71.54;98707.34;5033564;28;20033;-61
2022/09/18 00:36:14;;;;;;;9.65;6.00;;;;;;;11.14;71.44;98730.84;5048123;28;20483;-60
2022/09/18 00:38:40;;;;;;;9.48;5.93;;;;;;;11.12;71.51;98730.16;5073899;28;20028;-60
2022/09/18 00:41:11;;;;;;;9.00;5.80;;;;;;;11.14;71.64;98730.84;5063785;28;20105;-61
2022/09/18 00:43:37;;;;;;;9.10;5.80;;;;;;;11.10;71.36;98726.78;5059935;28;20449;-61
2022/09/18 00:46:07;;;;;;;11.35;5.68;;;;;;;11.16;71.54;98734.19;5073381;28;20389;-61
2022/09/18 00:48:58;;;;;;;9.52;5.63;;;;;;;11.24;71.40;98739.63;5073487;28;20040;-62
2022/09/18 00:51:25;;;;;;;7.68;4.97;;;;;;;11.17;71.19;98735.88;5073037;28;20057;-61
2022/09/18 00:54:02;;;;;;;10.95;5.45;;;;;;;11.04;71.63;98712.16;5073221;28;20671;-60
2022/09/18 00:56:28;;;;;;;6.82;5.43;;;;;;;11.15;71.43;98740.56;5061135;28;20112;-59
2022/09/18 00:58:54;;;;;;;12.45;6.10;;;;;;;11.12;71.33;98730.97;5052723;28;20116;-60
2022/09/18 01:01:19;;;;;;;9.75;5.78;;;;;;;11.12;71.76;98724.78;5059558;28;20028;-61
2022/09/18 01:03:45;;;;;;;9.10;5.60;;;;;;;11.12;71.94;98738.19;5072883;28;20105;-62
2022/09/18 01:06:15;;;;;;;7.35;5.60;;;;;;;11.10;71.74;98735.66;5073281;28;20036;-61
2022/09/18 01:08:59;;;;;;;8.45;5.30;;;;;;;11.20;71.98;98754.31;5054813;28;20041;-61
2022/09/18 01:11:46;;;;;;;9.85;5.38;;;;;;;11.19;71.77;98753.47;5052944;28;20462;-61
2022/09/18 01:14:37;;;;;;;6.88;5.30;;;;;;;11.17;71.75;98751.94;5067223;28;20036;-60
2022/09/18 01:17:16;;;;;;;9.45;5.45;;;;;;;11.13;72.12;98747.91;5073195;28;20055;-61
2022/09/18 01:19:52;;;;;;;8.15;5.10;;;;;;;11.05;71.68;98738.78;5055322;28;20470;-62
2022/09/18 01:22:38;;;;;;;7.95;5.57;;;;;;;11.10;71.91;98743.69;5031929;28;20037;-60
2022/09/18 01:25:41;;;;;;;9.68;5.03;;;;;;;11.09;71.94;98749.19;5032793;28;20362;-61
2022/09/18 01:28:29;;;;;;;6.75;5.22;;;;;;;10.99;71.97;98749.28;5041931;28;20039;-61
2022/09/18 01:31:00;;;;;;;12.15;6.10;;;;;;;10.87;72.34;98752.19;5052873;28;20091;-61
2022/09/18 01:33:45;;;;;;;10.20;6.13;;;;;;;10.86;72.59;98753.16;5052186;28;20032;-59
2022/09/18 01:36:15;;;;;;;10.77;5.93;;;;;;;10.81;72.99;98752.78;5067852;28;20036;-60
2022/09/18 01:38:48;;;;;;;11.52;5.90;;;;;;;10.73;73.10;98758.91;5072348;28;20405;-60
2022/09/18 01:41:19;;;;;;;9.15;5.63;;;;;;;10.70;73.08;98761.03;5069574;28;20119;-61
2022/09/18 01:43:49;;;;;;;12.38;6.15;;;;;;;10.68;73.58;98757.66;5072361;28;20093;-61
2022/09/18 01:46:18;;;;;;;12.10;6.22;;;;;;;10.58;73.33;98752.38;5072078;28;20036;-61
2022/09/18 01:49:01;;;;;;;9.93;6.00;;;;;;;10.65;74.01;98764.19;5056907;28;20029;-60
2022/09/18 01:51:58;;;;;;;8.70;6.30;;;;;;;10.64;74.04;98762.50;5051932;28;20048;-61
2022/09/18 01:54:29;;;;;;;10.77;6.30;;;;;;;10.45;74.13;98753.59;5060528;28;20137;-62
2022/09/18 01:56:54;;;;;;;11.13;6.93;;;;;;;10.47;74.19;98764.97;5072187;28;20032;-59
2022/09/18 01:59:25;;;;;;;14.02;6.95;;;;;;;10.45;74.51;98768.78;5055395;28;20107;-60
2022/09/18 02:01:54;;;;;;;15.13;6.60;;;;;;;10.43;75.13;98776.97;5032519;28;20034;-61
2022/09/18 02:04:26;;;;;;;10.38;6.53;;;;;;;10.42;74.61;98780.66;5032038;28;20434;-60
2022/09/18 02:07:07;;;;;;;13.75;6.53;;;;;;;10.42;75.14;98775.28;5058497;28;20125;-61
2022/09/18 02:09:33;;;;;;;12.10;6.72;;;;;;;10.32;75.10;98769.97;5072134;28;20118;-61
2022/09/18 02:12:00;;;;;;;12.75;7.30;;;;;;;10.31;75.27;98780.78;5069850;28;20454;-60
2022/09/18 02:14:34;;;;;;;11.90;6.15;;;;;;;10.30;75.33;98779.09;5054001;28;20042;-60
2022/09/18 02:17:04;;;;;;;10.98;6.45;;;;;;;10.27;75.56;98782.09;5072308;28;20021;-60
2022/09/18 02:19:35;;;;;;;11.07;6.63;;;;;;;10.26;75.92;98780.41;5061549;28;20033;-61
2022/09/18 02:22:06;;;;;;;10.85;6.63;;;;;;;10.17;75.79;98763.41;5051910;28;20064;-61
2022/09/18 02:24:35;;;;;;;12.55;7.13;;;;;;;10.20;75.78;98779.16;5054166;28;20029;-60
2022/09/18 02:27:05;;;;;;;12.82;7.15;;;;;;;10.09;76.49;98758.78;5072433;28;20036;-57
2022/09/18 02:29:32;;;;;;;10.15;6.82;;;;;;;10.08;75.89;98762.44;5072087;28;20082;-61
2022/09/18 02:32:02;;;;;;;10.10;6.97;;;;;;;10.13;76.09;98776.25;5057300;28;20048;-61
2022/09/18 02:34:30;;;;;;;11.80;7.07;;;;;;;10.05;76.64;98768.94;5052104;28;20048;-60
2022/09/18 02:37:20;;;;;;;12.48;6.95;;;;;;;10.14;76.24;98772.56;5038722;28;20098;-61
2022/09/18 02:40:06;;;;;;;12.02;6.47;;;;;;;10.09;76.06;98772.16;5053301;28;20040;-59
2022/09/18 02:42:46;;;;;;;;;;;;;;;10.29;74.91;98778.28;5053061;28;20048;-60
2022/09/18 02:45:30;;;;;;;12.75;6.90;;;;;;;10.10;75.74;98791.72;5052066;28;19917;-61
2022/09/18 02:48:01;;;;;;;10.60;7.18;;;;;;;9.98;76.66;98785.72;5051423;28;20067;-60
2022/09/18 02:50:35;;;;;;;10.10;7.53;;;;;;;9.87;76.67;98782.22;5058697;28;20051;-61
2022/09/18 02:53:23;;;;;;;16.17;8.18;;;;;;;9.86;77.01;98807.25;5071767;28;20098;-60
2022/09/18 02:55:54;;;;;;;12.20;7.72;;;;;;;9.81;77.03;98801.50;5070730;28;20075;-60
2022/09/18 02:58:28;;;;;;;13.60;8.32;;;;;;;9.77;77.09;98792.97;5051438;28;20043;-60
2022/09/18 03:00:57;;;;;;;13.77;8.52;;;;;;;9.75;77.29;98797.59;5051582;28;20418;-61
2022/09/18 03:03:30;;;;;;;14.35;8.55;;;;;;;9.77;77.32;98797.44;5066347;28;20028;-60
2022/09/18 03:05:56;;;;;;;13.23;8.60;;;;;;;9.70;77.80;98797.19;5071505;28;20105;-60
2022/09/18 03:08:22;;;;;;;14.65;9.05;;;;;;;9.68;77.64;98790.31;5061865;28;20036;-61
2022/09/18 03:10:48;;;;;;;13.02;9.45;;;;;;;9.68;77.88;98795.66;5051390;28;20055;-60
2022/09/18 03:13:14;;;;;;;14.25;9.35;;;;;;;9.70;77.82;98791.81;5034009;28;20025;-60
2022/09/18 03:15:39;;;;;;;18.52;8.73;;;;;;;9.69;78.13;98800.00;5059735;28;20025;-62
2022/09/18 03:18:05;;;;;;;14.35;8.73;;;;;;;9.68;77.84;98807.16;5071837;28;20165;-61
2022/09/18 03:20:30;;;;;;;13.10;9.23;;;;;;;9.73;77.94;98799.56;5071525;28;20028;-63
2022/09/18 03:22:56;;;;;;;12.70;8.93;;;;;;;9.75;78.07;98794.09;5065063;28;20025;-61
2022/09/18 03:25:21;;;;;;;15.70;9.25;;;;;;;9.59;78.01;98763.44;5037774;28;20107;-61
2022/09/18 03:27:46;;;;;;;12.85;8.38;;;;;;;9.82;77.58;98800.53;5057958;28;20035;-60
2022/09/18 03:30:12;;;;;;;13.60;8.77;;;;;;;9.87;77.52;98798.25;5074413;28;20034;-59
2022/09/18 03:32:37;;;;;;;15.13;8.43;;;;;;;9.91;77.33;98801.50;5075741;28;20427;-61
2022/09/18 03:35:03;;;;;;;13.27;9.32;;;;;;;9.99;77.59;98782.06;5055187;28;20459;-60
2022/09/18 03:37:29;;;;;;;12.75;8.90;;;;;;;10.24;76.80;98780.53;5054883;28;20045;-62
2022/09/18 03:39:55;;;;;;;12.95;8.60;;;;;;;10.26;76.23;98765.22;5065114;28;20032;-60
2022/09/18 03:42:20;;;;;;;13.27;8.13;;;;;;;10.52;75.75;98795.78;5075129;28;20191;-61
2022/09/18 03:44:46;;;;;;;15.13;8.80;;;;;;;10.65;75.66;98792.75;5057376;28;20150;-63
2022/09/18 03:47:11;;;;;;;10.45;8.18;;;;;;;10.97;74.39;98789.59;5054361;28;20138;-62
2022/09/18 03:49:37;;;;;;;13.98;8.90;;;;;;;11.47;73.03;98787.38;5054603;28;20060;-59
2022/09/18 03:52:03;;;;;;;16.17;7.68;;;;;;;12.06;70.33;98789.47;5066474;28;20063;-61
2022/09/18 03:54:28;;;;;;;11.88;7.45;;;;;;;12.34;69.20;98779.38;5073997;28;20044;-61
2022/09/18 03:56:54;;;;;;;9.25;6.50;;;;;;;13.40;66.26;98778.94;5073456;28;20358;-61
2022/09/18 03:59:19;;;;;;;10.65;7.00;;;;;;;14.95;60.75;98766.22;5054572;28;20347;-60
2022/09/18 04:01:44;;;;;;;12.25;6.20;;;;;;;16.29;56.00;98764.03;5053969;28;20443;-61
2022/09/18 04:04:10;;;;;;;7.07;6.13;;;;;;;17.41;52.38;98758.44;5064747;28;20160;-61
2022/09/18 04:06:35;;;;;;;8.75;6.13;;;;;;;17.93;50.53;98762.56;5064258;28;20126;-61
2022/09/18 04:09:01;;;;;;;16.50;6.78;;;;;;;17.52;51.32;98766.00;5055643;28;20029;-60
2022/09/18 04:11:26;;;;;;;7.85;6.28;;;;;;;17.07;52.31;98761.63;5074097;28;20040;-61
2022/09/18 04:13:52;;;;;;;11.45;6.22;;;;;;;16.49;53.64;98759.72;5074379;28;20028;-67
2022/09/18 04:16:17;;;;;;;10.80;6.20;;;;;;;16.05;55.03;98760.56;5068993;28;20017;-61
2022/09/18 04:18:43;;;;;;;9.63;6.55;;;;;;;16.10;54.71;98739.25;5073875;28;20553;-61
2022/09/18 04:21:08;;;;;;;8.88;6.18;;;;;;;17.60;51.12;98770.44;5070463;28;20466;-60
2022/09/18 04:23:34;;;;;;;8.40;5.85;;;;;;;19.27;47.11;98758.75;5053782;28;20025;-62
2022/09/18 04:26:02;;;;;;;12.05;5.90;;;;;;;20.79;42.99;98770.69;5036027;28;20052;-62
2022/09/18 04:28:28;;;;;;;8.95;5.40;;;;;;;22.01;40.02;98770.66;5038434;28;20028;-61
2022/09/18 04:30:53;;;;;;;7.82;5.90;;;;;;;22.87;37.98;98769.91;5073880;28;20033;-60
2022/09/18 04:33:18;;;;;;;8.25;5.45;;;;;;;23.72;36.09;98767.16;5071547;28;20083;-60
2022/09/18 04:35:44;;;;;;;9.95;5.43;;;;;;;23.65;35.61;98739.13;5052762;28;20083;-60
2022/09/18 04:38:09;;;;;;;9.48;5.38;;;;;;;23.03;36.83;98776.59;5055504;28;20060;-62
2022/09/18 04:40:35;;;;;;;10.60;5.95;;;;;;;22.92;37.28;98763.75;5043248;28;20052;-60
2022/09/18 04:43:00;;;;;;;7.50;5.97;;;;;;;23.85;35.68;98768.84;5042995;28;20093;-59
2022/09/18 04:45:26;;;;;;;9.52;5.93;;;;;;;24.85;33.73;98767.22;5052208;28;20593;-60
2022/09/18 04:47:51;;;;;;;9.13;5.88;;;;;;;25.54;32.09;98774.47;5052452;28;20348;-61
2022/09/18 04:50:17;;;;;;;12.52;5.55;;;;;;;25.88;31.40;98773.66;5053070;28;20041;-60
2022/09/18 04:52:43;;;;;;;7.65;5.22;;;;;;;26.14;30.83;98769.38;5052339;28;20041;-65
2022/09/18 04:55:08;;;;;;;7.88;5.28;;;;;;;26.32;30.46;98761.97;5052068;28;20413;-58
2022/09/18 04:57:34;;;;;;;10.40;5.57;;;;;;;26.52;30.46;98766.88;5053147;28;20033;-61
2022/09/18 04:59:59;;;;;;;7.88;4.97;;;;;;;26.58;29.79;98741.16;5052834;28;20436;-62
2022/09/18 05:02:25;;;;;;;8.35;5.63;;;;;;;27.28;29.08;98757.03;5052092;28;20063;-62
2022/09/18 05:04:50;;;;;;;7.80;5.60;;;;;;;27.52;28.19;98734.75;5042545;28;20366;-61
2022/09/18 05:07:16;;;;;;;9.98;5.13;;;;;;;28.66;26.69;98765.66;5052401;28;20083;-60
2022/09/18 05:09:41;;;;;;;8.98;5.35;;;;;;;29.22;25.79;98754.00;5052416;28;20032;-61
2022/09/18 05:12:08;;;;;;;7.47;4.90;;;;;;;29.82;25.08;98766.44;5052227;28;20036;-60
2022/09/18 05:14:34;;;;;;;13.82;5.47;;;;;;;30.49;24.23;98738.69;5051719;28;20041;-62
2022/09/18 05:17:00;;;;;;;8.45;5.07;;;;;;;31.70;22.61;98751.47;5051930;28;20025;-60
2022/09/18 05:19:26;;;;;;;9.50;5.25;;;;;;;32.58;21.46;98758.88;5051933;28;20029;-61
2022/09/18 05:21:52;;;;;;;5.82;4.20;;;;;;;33.02;20.72;98762.47;5052588;28;20347;-61
2022/09/18 05:24:17;;;;;;;6.10;4.90;;;;;;;33.88;19.81;98748.63;5041867;28;20112;-60
2022/09/18 05:26:43;;;;;;;7.32;4.68;;;;;;;35.10;18.30;98725.34;5052439;28;20041;-66
2022/09/18 05:29:09;;;;;;;7.45;4.75;;;;;;;36.40;16.92;98754.28;5053319;28;20112;-61
2022/09/18 05:31:35;;;;;;;7.68;4.63;;;;;;;36.54;17.06;98742.22;5051259;28;20425;-62
2022/09/18 05:34:00;;;;;;;8.20;5.15;;;;;;;37.10;16.18;98739.72;5051610;28;20033;-62
2022/09/18 05:36:26;;;;;;;4.97;4.03;;;;;;;37.87;15.49;98741.91;5051364;28;20025;-62
2022/09/18 05:38:51;;;;;;;9.23;4.65;;;;;;;37.82;15.34;98739.28;5054378;28;20029;-62
2022/09/18 05:41:17;;;;;;;6.35;4.25;;;;;;;37.98;15.53;98730.38;5051478;28;20072;-60
2022/09/18 05:43:43;;;;;;;10.43;4.70;;;;;;;38.58;14.80;98736.84;5050825;28;20102;-59
2022/09/18 05:46:09;;;;;;;11.98;5.00;;;;;;;38.97;14.63;98730.38;5041597;28;20512;-63
2022/09/18 05:48:35;;;;;;;11.05;5.40;;;;;;;38.94;14.42;98729.06;5050820;28;20700;-60
2022/09/18 05:51:00;;;;;;;7.25;5.25;;;;;;;38.89;14.43;98730.03;5050882;28;20091;-64
2022/09/18 05:53:26;;;;;;;7.20;4.85;;;;;;;39.57;13.81;98722.59;5051050;28;20360;-60
2022/09/18 05:55:51;;;;;;;5.80;5.20;;;;;;;41.03;12.64;98714.88;5051376;28;20025;-59
2022/09/18 05:58:18;;;;;;;8.50;5.53;;;;;;;41.52;12.30;98721.47;5053652;28;20446;-59
2022/09/18 06:00:44;;;;;;;9.68;5.78;;;;;;;41.06;12.35;98709.72;5052096;28;20064;-62
2022/09/18 06:03:12;;;;;;;7.20;5.32;;;;;;;41.09;12.50;98720.25;5051946;28;20060;-63
2022/09/18 06:05:39;;;;;;;7.68;5.20;;;;;;;41.47;11.96;98721.72;5051523;28;20025;-60
2022/09/18 06:08:07;;;;;;;9.95;5.75;;;;;;;42.03;11.71;98732.06;5052272;28;20025;-56
2022/09/18 06:10:36;;;;;;;11.02;6.45;;;;;;;41.78;11.54;98724.97;5052182;28;20024;-51
2022/09/18 06:13:08;;;;;;;10.18;6.32;;;;;;;39.29;13.58;98728.75;5051482;28;20109;-56
2022/09/18 06:15:34;;;;;;;12.68;6.95;;;;;;;35.79;16.66;98701.94;5052091;28;20028;-51
2022/09/18 06:18:00;;;;;;;11.15;6.18;;;;;;;33.26;19.16;98724.69;5052584;28;20104;-54
2022/09/18 06:20:26;;;;;;;9.15;7.15;;;;;;;31.91;20.66;98715.31;5051532;28;20055;-52
2022/09/18 06:22:52;;;;;;;11.00;6.65;;;;;;;33.95;18.45;98714.91;5052700;28;20037;-59
2022/09/18 06:25:20;;;;;;;7.57;6.85;;;;;;;37.02;15.96;98713.44;5042699;28;20052;-54
2022/09/18 06:27:47;;;;;;;8.18;6.72;;;;;;;39.11;14.11;98719.69;5051800;28;20033;-63
2022/09/18 06:30:12;;;;;;;9.02;6.60;;;;;;;40.13;13.10;98726.88;5057664;28;20077;-54
2022/09/18 06:32:38;;;;;;;9.65;5.95;;;;;;;41.18;12.12;98699.28;5071893;28;20036;-49
2022/09/18 06:35:03;;;;;;;6.75;5.35;;;;;;;41.15;12.10;98716.84;5072054;28;20059;-51
2022/09/18 06:37:29;;;;;;;6.38;5.43;;;;;;;40.93;12.13;98718.19;5055119;28;20347;-54
2022/09/18 06:39:54;;;;;;;8.57;5.97;;;;;;;40.55;12.18;98723.03;5051723;28;20047;-53
2022/09/18 06:42:20;;;;;;;7.20;5.72;;;;;;;40.14;12.74;98727.69;5058641;28;20025;-61
2022/09/18 06:44:45;;;;;;;12.18;6.15;;;;;;;40.46;12.63;98720.34;5054689;28;20028;-60
2022/09/18 06:48:43;;;;;;;9.90;6.25;;;;;;;40.05;12.70;98720.22;5110021;27;20681;-56
2022/09/18 06:51:09;;;;;;;11.30;6.20;;;;;;;39.43;13.45;98719.25;5109299;28;20035;-56
2022/09/18 06:53:34;;;;;;;8.85;5.05;;;;;;;38.40;13.94;98724.09;5109971;28;20084;-54
2022/09/18 06:56:02;;;;;;;13.25;5.25;;;;;;;37.19;14.87;98700.66;5109716;28;20165;-56
2022/09/18 06:58:28;;;;;;;9.65;5.70;;;;;;;36.11;15.91;98707.50;5085245;28;20418;-58
2022/09/18 07:00:53;;;;;;;8.10;5.72;;;;;;;35.38;17.12;98719.66;5078534;28;20035;-60
2022/09/18 07:03:18;;;;;;;7.38;6.22;;;;;;;34.75;17.54;98710.00;5080495;28;20025;-59
2022/09/18 07:05:44;;;;;;;10.07;5.95;;;;;;;35.34;17.09;98722.28;5087127;28;20457;-56
2022/09/18 07:08:10;;;;;;;9.25;6.13;;;;;;;36.29;16.41;98708.38;5088244;28;20450;-51
2022/09/18 07:10:36;;;;;;;9.90;6.15;;;;;;;38.63;14.18;98700.28;5088640;28;20416;-57
2022/09/18 07:13:02;;;;;;;7.63;5.22;;;;;;;40.50;12.57;98684.00;5089613;28;20040;-53
2022/09/18 07:15:27;;;;;;;9.27;4.65;;;;;;;41.60;11.82;98703.66;5087086;28;20078;-53
2022/09/18 07:17:58;;;;;;;8.02;5.00;;;;;;;42.80;11.18;98705.72;5089057;28;20111;-54
2022/09/18 07:20:24;;;;;;;9.80;4.72;;;;;;;43.30;10.56;98706.81;5088503;28;20036;-53
2022/09/18 07:22:58;;;;;;;9.10;4.55;;;;;;;44.35;10.15;98719.09;5089316;28;20032;-58
2022/09/18 07:25:24;;;;;;;6.88;4.90;;;;;;;44.39;9.48;98720.00;5088703;28;20058;-55
2022/09/18 07:27:50;;;;;;;5.80;4.75;;;;;;;43.31;10.43;98685.91;5068013;28;20089;-56
2022/09/18 07:30:17;;;;;;;8.15;4.60;;;;;;;42.40;11.21;98700.00;5068485;28;20032;-57
2022/09/18 07:32:43;;;;;;;7.85;4.47;;;;;;;41.38;11.58;98698.59;5080318;28;20110;-57
2022/09/18 07:35:09;;;;;;;13.18;5.60;;;;;;;39.73;12.91;98694.72;5088669;28;20043;-53
2022/09/18 07:37:35;;;;;;;8.40;5.10;;;;;;;37.54;14.40;98689.44;5088499;28;20032;-54
2022/09/18 07:40:01;;;;;;;8.13;5.88;;;;;;;35.64;16.62;98690.06;5088347;28;20331;-50
2022/09/18 07:42:27;;;;;;;10.30;5.78;;;;;;;33.73;18.52;98688.66;5088534;28;20029;-55
2022/09/18 07:44:53;;;;;;;11.90;5.75;;;;;;;31.40;21.06;98687.03;5088173;28;20434;-55
2022/09/18 07:47:19;;;;;;;11.95;6.03;;;;;;;29.80;23.11;98683.13;5088603;28;20070;-55
2022/09/18 07:49:44;;;;;;;10.25;5.88;;;;;;;28.10;25.34;98673.47;5087869;28;20377;-56
2022/09/18 07:52:10;;;;;;;9.10;5.15;;;;;;;26.95;26.60;98660.03;5088261;28;20024;-57
2022/09/18 07:54:36;;;;;;;10.20;5.45;;;;;;;26.32;28.25;98669.50;5088283;28;20036;-53
2022/09/18 07:57:02;;;;;;;9.85;6.05;;;;;;;25.75;29.45;98668.75;5088050;28;20399;-51
2022/09/18 07:59:27;;;;;;;7.97;5.60;;;;;;;25.72;29.40;98668.41;5078344;28;20043;-52
2022/09/18 08:01:54;;;;;;;9.45;5.43;;;;;;;25.74;29.27;98658.03;5074338;28;20040;-52
2022/09/18 08:04:21;;;;;;;9.57;5.15;;;;;;;25.67;29.38;98649.16;5075116;28;20028;-55
2022/09/18 08:06:54;;;;;;;8.85;5.53;;;;;;;25.40;29.19;98619.72;5074238;28;20035;-55
2022/09/18 08:09:20;;;;;;;7.78;4.90;;;;;;;24.89;30.54;98635.06;5074828;28;20054;-52
2022/09/18 08:11:46;;;;;;;7.00;5.10;;;;;;;24.45;31.26;98630.16;5075102;28;20415;-57
2022/09/18 08:14:12;;;;;;;11.05;5.63;;;;;;;24.23;31.96;98627.25;5074064;28;20035;-53
2022/09/18 08:16:38;;;;;;;7.50;5.38;;;;;;;24.10;32.10;98609.22;5074170;28;20401;-57
2022/09/18 08:19:03;;;;;;;9.35;5.55;;;;;;;24.19;32.18;98615.13;5074119;28;20115;-52
2022/09/18 08:21:30;;;;;;;11.55;6.22;;;;;;;24.11;32.13;98623.72;5074167;28;20411;-58
2022/09/18 08:23:56;;;;;;;9.82;6.22;;;;;;;23.59;33.33;98612.50;5074070;28;20039;-54
2022/09/18 08:26:21;;;;;;;10.15;5.95;;;;;;;23.06;34.48;98617.81;5074136;28;20032;-54
2022/09/18 08:28:47;;;;;;;8.98;5.95;;;;;;;22.57;34.88;98598.88;5074543;28;20040;-57
2022/09/18 08:31:12;;;;;;;9.48;6.30;;;;;;;22.43;35.19;98598.22;5074284;28;20029;-52
2022/09/18 08:33:38;;;;;;;7.07;5.60;;;;;;;22.43;35.56;98590.03;5073846;28;20081;-59
2022/09/18 08:36:04;;;;;;;11.77;6.68;;;;;;;22.48;35.78;98584.72;5073295;28;20024;-56
2022/09/18 08:38:29;;;;;;;11.20;5.50;;;;;;;22.35;35.64;98580.28;5072846;28;20055;-57
2022/09/18 08:41:38;;;;;;;12.07;6.78;;;;;;;22.23;35.44;98560.31;5073828;28;20037;-55
2022/09/18 08:44:17;;;;;;;9.20;6.63;;;;;;;22.23;35.54;98579.38;5073772;28;20032;-55
2022/09/18 08:46:50;;;;;;;13.88;6.32;;;;;;;21.97;36.35;98584.13;5072753;28;20055;-56
2022/09/18 08:49:25;;;;;;;10.90;5.60;;;;;;;21.81;37.02;98591.03;5073725;28;20089;-58
2022/09/18 08:51:58;;;;;;;8.23;6.45;;;;;;;21.96;36.80;98579.75;5074526;28;20548;-53
2022/09/18 08:54:37;;;;;;;11.25;7.00;;;;;;;22.14;36.55;98594.41;5072620;28;20044;-57
2022/09/18 08:57:12;;;;;;;12.50;7.63;;;;;;;21.90;37.15;98573.31;5073402;28;20352;-57
2022/09/18 08:59:43;;;;;;;10.63;7.32;;;;;;;21.78;37.67;98575.97;5072252;28;20111;-55
2022/09/18 09:02:48;;;;;;;10.80;7.50;;;;;;;21.72;37.55;98576.88;5073503;28;20040;-55
2022/09/18 09:05:17;;;;;;;13.18;7.95;;;;;;;21.34;38.67;98581.47;5072960;28;20055;-55
2022/09/18 09:07:46;;;;;;;12.68;8.27;;;;;;;21.29;38.75;98562.25;5073588;28;20040;-52
2022/09/18 09:10:29;;;;;;;15.70;9.15;;;;;;;21.41;38.54;98561.50;5071617;28;20035;-51
2022/09/18 09:13:10;;;;;;;11.73;9.23;;;;;;;21.10;39.91;98557.84;5073253;28;20481;-62
2022/09/18 09:16:01;;;;;;;19.38;10.05;;;;;;;21.22;39.31;98547.88;5072310;28;20119;-61
2022/09/18 09:18:30;;;;;;;13.73;9.50;;;;;;;21.21;39.92;98555.19;5073284;28;20042;-59
2022/09/18 09:20:59;;;;;;;11.10;8.35;;;;;;;21.19;39.45;98556.47;5073060;28;20094;-62
2022/09/18 09:23:46;;;;;;;13.63;9.20;;;;;;;21.15;40.04;98555.25;5072596;28;20111;-58
2022/09/18 09:26:21;;;;;;;14.13;9.23;;;;;;;20.91;40.57;98555.06;5072652;28;20413;-57
2022/09/18 09:29:12;;;;;;;14.05;9.48;;;;;;;20.51;41.00;98548.03;5072145;28;20028;-58
2022/09/18 09:31:46;;;;;;;15.00;9.55;;;;;;;19.96;42.67;98535.84;5072718;28;20040;-62
2022/09/18 09:34:27;;;;;;;15.75;9.48;;;;;;;19.80;42.88;98545.28;5072474;28;20044;-62
2022/09/18 09:36:56;;;;;;;17.70;9.85;;;;;;;19.39;43.63;98527.47;5053241;28;20047;-62
2022/09/18 09:39:31;;;;;;;17.58;9.50;;;;;;;19.02;44.82;98541.53;5052645;28;20418;-61
2022/09/18 09:42:04;;;;;;;14.90;9.02;;;;;;;18.86;45.05;98540.88;5070242;28;20028;-60
2022/09/18 09:44:37;;;;;;;20.00;9.43;;;;;;;18.58;45.54;98532.97;5071571;28;20419;-62
2022/09/18 09:47:11;;;;;;;14.43;7.93;;;;;;;18.44;45.43;98535.66;5071640;28;20513;-61
2022/09/18 09:50:23;;;;;;;13.20;7.63;;;;;;;18.57;44.52;98542.16;5072179;28;20045;-61
2022/09/18 09:52:53;;;;;;;11.40;7.90;;;;;;;18.25;45.95;98531.91;5069574;28;20508;-62
2022/09/18 09:55:30;;;;;;;11.73;7.28;;;;;;;18.04;46.46;98511.22;5071081;28;20032;-61
2022/09/18 09:58:11;;;;;;;16.33;7.47;;;;;;;18.12;46.71;98526.44;5072680;28;20029;-62
2022/09/18 10:00:47;;;;;;;10.02;6.63;;;;;;;18.17;46.89;98522.09;5072074;28;20047;-60
2022/09/18 10:03:27;;;;;;;10.73;6.78;;;;;;;18.18;46.86;98523.75;5072219;28;20032;-63
2022/09/18 10:06:15;;;;;;;10.15;7.10;;;;;;;18.01;46.76;98533.25;5072411;28;20504;-62
2022/09/18 10:09:09;;;;;;;10.38;7.45;;;;;;;17.71;47.14;98523.56;5052424;28;20043;-61
2022/09/18 10:11:38;;;;;;;12.70;7.90;;;;;;;17.50;48.63;98538.91;5052396;28;20035;-64
2022/09/18 10:14:14;;;;;;;13.15;8.10;;;;;;;17.27;49.56;98528.38;5066493;28;20047;-61
2022/09/18 10:16:44;;;;;;;11.15;7.63;;;;;;;17.12;50.20;98514.13;5072765;28;20032;-62
2022/09/18 10:19:14;;;;;;;14.77;8.05;;;;;;;17.16;50.30;98515.41;5071724;28;20036;-62
2022/09/18 10:21:41;;;;;;;10.05;7.80;;;;;;;17.15;50.59;98509.16;5071776;28;20150;-61
2022/09/18 10:24:51;;;;;;;13.38;8.63;;;;;;;17.36;49.66;98504.69;5072560;28;20044;-62
2022/09/18 10:27:16;;;;;;;10.93;8.73;;;;;;;17.26;50.48;98488.84;5052272;28;20087;-61
2022/09/18 10:29:42;;;;;;;15.93;9.32;;;;;;;17.32;50.46;98500.72;5051996;28;20056;-61
2022/09/18 10:32:11;;;;;;;11.82;8.57;;;;;;;17.14;50.83;98491.28;5068329;28;20052;-61
2022/09/18 10:34:49;;;;;;;13.05;9.60;;;;;;;17.21;50.62;98505.66;5072951;28;20090;-63
2022/09/18 10:37:19;;;;;;;13.80;9.90;;;;;;;17.12;51.19;98498.75;5072143;28;20120;-62
2022/09/18 10:39:52;;;;;;;13.52;9.77;;;;;;;17.01;51.28;98483.91;5072043;28;20524;-62
2022/09/18 10:42:23;;;;;;;14.63;10.27;;;;;;;17.02;51.62;98487.47;5072087;28;20124;-62
2022/09/18 10:44:52;;;;;;;12.27;9.65;;;;;;;16.78;52.43;98501.19;5072286;28;20036;-61
2022/09/18 10:47:27;;;;;;;13.32;10.27;;;;;;;16.67;52.60;98485.53;5071776;28;20048;-60
2022/09/18 10:49:52;;;;;;;20.65;10.82;;;;;;;16.53;53.94;98479.19;5071319;28;20032;-61
2022/09/18 10:52:30;;;;;;;15.93;9.75;;;;;;;16.67;52.87;98473.88;5071204;28;20403;-61
2022/09/18 10:55:04;;;;;;;11.43;9.18;;;;;;;16.53;53.28;98445.94;5072089;28;20102;-62
2022/09/18 10:57:32;;;;;;;12.10;9.05;;;;;;;16.42;54.10;98477.88;5071514;28;20060;-61
2022/09/18 10:59:58;;;;;;;14.63;8.98;;;;;;;16.47;54.38;98470.00;5070820;28;20028;-62
2022/09/18 11:02:27;;;;;;;15.73;8.90;;;;;;;16.28;54.98;98479.63;5071585;28;20048;-63
2022/09/18 11:04:53;;;;;;;10.80;8.40;;;;;;;16.34;55.00;98467.19;5071537;28;20059;-62
2022/09/18 11:07:22;;;;;;;13.45;8.38;;;;;;;16.26;55.16;98461.94;5071501;28;20044;-62
2022/09/18 11:09:49;;;;;;;16.88;8.75;;;;;;;16.13;55.52;98454.56;5071492;28;20050;-62
2022/09/18 11:12:21;;;;;;;14.35;8.50;;;;;;;16.16;55.60;98463.09;5071316;28;20446;-62
2022/09/18 11:14:52;;;;;;;13.13;8.80;;;;;;;16.02;56.21;98454.03;5071751;28;20032;-62
2022/09/18 11:17:27;;;;;;;12.48;8.73;;;;;;;16.31;55.61;98445.97;5071424;28;20359;-61
2022/09/18 11:19:59;;;;;;;16.27;9.50;;;;;;;16.05;57.20;98450.97;5071184;28;20066;-61
2022/09/18 11:22:40;;;;;;;11.02;9.30;;;;;;;15.94;58.63;98446.06;5071228;28;20034;-62
2022/09/18 11:25:26;;;;;;;13.68;9.07;;;;;;;16.00;59.03;98447.16;5071191;28;20032;-63
2022/09/18 11:27:57;;;;;;;11.73;9.13;;;;;;;16.24;57.81;98431.59;5071420;28;20145;-61
2022/09/18 11:30:27;;;;;;;12.32;8.27;;;;;;;16.14;57.71;98418.41;5070854;28;20805;-62
2022/09/18 11:33:08;;;;;;;10.57;8.10;;;;;;;16.12;58.49;98417.78;5071463;28;20127;-63
2022/09/18 11:35:35;;;;;;;15.10;7.80;;;;;;;16.03;59.24;98404.41;5074286;28;20064;-61
2022/09/18 11:38:06;;;;;;;12.25;8.48;;;;;;;15.95;60.27;98412.63;5074778;28;20028;-62
2022/09/18 11:40:41;;;;;;;9.48;8.27;;;;;;;15.97;60.51;98401.66;5075535;28;20396;-61
2022/09/18 11:43:15;;;;;;;15.88;8.65;;;;;;;16.07;59.74;98402.16;5074465;28;20059;-61
2022/09/18 11:45:47;;;;;;;11.18;8.75;;;;;;;15.88;61.13;98388.28;5075139;28;20029;-61